createdAt,value
2022-08-10T00:01:52.294Z,21.26
2022-08-10T00:04:24.665Z,20.89
2022-08-10T00:06:54.309Z,20.56
2022-08-10T00:09:23.921Z,20.27
2022-08-10T00:11:51.869Z,20.01
2022-08-10T00:14:19.859Z,19.78
2022-08-10T00:16:47.832Z,20.13
2022-08-10T00:19:16.581Z,22.28
2022-08-10T00:21:47.227Z,23.71
2022-08-10T00:24:15.231Z,23.14
2022-08-10T00:27:52.986Z,22.35
2022-08-10T00:29:31.644Z,21.68
2022-08-10T00:31:59.811Z,21.22
2022-08-10T00:34:29.866Z,20.83
2022-08-10T00:36:58.120Z,20.49
2022-08-10T00:39:27.576Z,20.19
2022-08-10T00:42:06.517Z,19.91
2022-08-10T00:44:37.423Z,19.64
2022-08-10T00:47:06.883Z,20.06
2022-08-10T00:49:43.538Z,22.30
2022-08-10T00:52:14.413Z,23.62
2022-08-10T00:54:43.474Z,23.03
2022-08-10T00:57:15.929Z,22.21
2022-08-10T00:59:58.468Z,21.56
2022-08-10T01:02:30.907Z,21.02
2022-08-10T01:05:07.868Z,20.62
2022-08-10T01:08:01.339Z,20.25
2022-08-10T01:10:29.158Z,19.89
2022-08-10T01:13:01.231Z,19.61
2022-08-10T01:15:36.913Z,19.90
2022-08-10T01:18:23.646Z,22.27
2022-08-10T01:21:25.472Z,23.81
2022-08-10T01:23:59.341Z,22.85
2022-08-10T01:27:04.602Z,22.01
2022-08-10T01:29:59.857Z,21.26
2022-08-10T01:32:47.986Z,20.70
2022-08-10T01:35:24.644Z,20.25
2022-08-10T01:38:06.680Z,19.87
2022-08-10T01:40:38.685Z,19.52
2022-08-10T01:43:11.089Z,19.82
2022-08-10T01:45:44.966Z,22.12
2022-08-10T01:48:33.316Z,23.63
2022-08-10T01:51:17.969Z,22.79
2022-08-10T01:53:53.441Z,21.81
2022-08-10T01:56:24.681Z,21.12
2022-08-10T01:59:07.726Z,20.58
2022-08-10T02:01:39.561Z,20.09
2022-08-10T02:04:10.892Z,19.70
2022-08-10T02:06:43.500Z,19.36
2022-08-10T02:09:19.089Z,19.58
2022-08-10T02:12:05.180Z,21.65
2022-08-10T02:14:53.489Z,23.16
2022-08-10T02:17:59.126Z,22.33
2022-08-10T02:20:18.710Z,21.38
2022-08-10T02:22:52.155Z,20.75
2022-08-10T02:25:41.774Z,20.23
2022-08-10T02:28:30.104Z,19.73
2022-08-10T02:31:06.300Z,19.31
2022-08-10T02:33:38.058Z,18.93
2022-08-10T02:36:10.354Z,19.26
2022-08-10T02:38:59.422Z,21.31
2022-08-10T02:45:13.075Z,22.71
2022-08-10T02:45:25.766Z,21.78
2022-08-10T02:48:20.021Z,20.72
2022-08-10T02:51:00.069Z,20.08
2022-08-10T02:53:56.531Z,19.58
2022-08-10T02:56:28.811Z,19.12
2022-08-10T02:59:11.836Z,19.40
2022-08-10T03:01:45.002Z,21.59
2022-08-10T03:04:20.963Z,22.98
2022-08-10T03:07:12.179Z,22.13
2022-08-10T03:09:41.690Z,21.26
2022-08-10T03:12:36.419Z,20.59
2022-08-10T03:15:01.597Z,19.97
2022-08-10T03:17:30.385Z,19.53
2022-08-10T03:20:33.463Z,19.13
2022-08-10T03:22:51.870Z,18.69
2022-08-10T03:25:22.288Z,19.00
2022-08-10T03:27:50.769Z,21.02
2022-08-10T03:30:27.422Z,22.50
2022-08-10T03:33:05.442Z,21.81
2022-08-10T03:35:33.794Z,20.92
2022-08-10T03:38:01.899Z,20.24
2022-08-10T03:40:45.798Z,19.70
2022-08-10T03:43:21.665Z,19.21
2022-08-10T03:45:56.471Z,18.79
2022-08-10T03:48:44.716Z,19.07
2022-08-10T03:51:16.888Z,21.45
2022-08-10T03:54:04.368Z,22.74
2022-08-10T03:56:38.960Z,21.98
2022-08-10T03:59:15.131Z,21.14
2022-08-10T04:02:46.139Z,20.49
2022-08-10T04:04:33.626Z,19.93
2022-08-10T04:07:02.705Z,19.54
2022-08-10T04:09:54.168Z,19.19
2022-08-10T04:12:21.286Z,18.80
2022-08-10T04:14:51.988Z,19.03
2022-08-10T04:18:03.253Z,21.06
2022-08-10T04:20:20.476Z,22.62
2022-08-10T04:22:52.192Z,22.07
2022-08-10T04:25:21.469Z,21.50
2022-08-10T04:27:50.255Z,21.05
2022-08-10T04:30:18.680Z,20.68
2022-08-10T04:32:50.172Z,20.39
2022-08-10T04:35:20.814Z,20.15
2022-08-10T04:37:51.240Z,19.91
2022-08-10T04:40:29.056Z,19.68
2022-08-10T04:43:11.268Z,19.45
2022-08-10T04:45:48.894Z,19.27
2022-08-10T04:48:39.955Z,19.97
2022-08-10T04:51:18.436Z,22.71
2022-08-10T04:54:03.793Z,24.22
2022-08-10T04:56:39.716Z,23.45
2022-08-10T04:59:09.521Z,22.61
2022-08-10T05:02:30.001Z,21.98
2022-08-10T05:04:34.973Z,21.40
2022-08-10T05:07:10.763Z,20.97
2022-08-10T05:10:01.423Z,20.62
2022-08-10T05:12:28.070Z,20.29
2022-08-10T05:14:56.420Z,20.16
2022-08-10T05:17:24.257Z,20.01
2022-08-10T05:20:01.503Z,19.80
2022-08-10T05:22:41.787Z,20.26
2022-08-10T05:25:15.054Z,22.46
2022-08-10T05:27:43.916Z,23.82
2022-08-10T05:30:19.778Z,23.24
2022-08-10T05:32:58.516Z,22.54
2022-08-10T05:35:56.568Z,22.03
2022-08-10T05:38:18.433Z,21.62
2022-08-10T05:40:48.062Z,21.29
2022-08-10T05:43:22.311Z,21.00
2022-08-10T05:46:19.387Z,20.74
2022-08-10T05:48:59.651Z,20.50
2022-08-10T05:51:30.465Z,20.30
2022-08-10T05:54:04.525Z,20.17
2022-08-10T05:56:55.099Z,20.68
2022-08-10T06:00:34.922Z,23.19
2022-08-10T06:02:35.042Z,24.62
2022-08-10T06:05:06.724Z,23.88
2022-08-10T06:07:38.557Z,23.23
2022-08-10T06:10:10.431Z,22.71
2022-08-10T06:12:54.239Z,22.33
2022-08-10T06:15:52.149Z,22.03
2022-08-10T06:18:16.902Z,21.75
2022-08-10T06:20:46.376Z,21.55
2022-08-10T06:23:14.621Z,21.38
2022-08-10T06:26:11.502Z,21.23
2022-08-10T06:28:35.317Z,21.09
2022-08-10T06:31:05.818Z,20.99
2022-08-10T06:33:37.446Z,20.92
2022-08-10T06:36:08.280Z,20.88
2022-08-10T06:38:39.702Z,20.86
2022-08-10T06:41:19.566Z,20.83
2022-08-10T06:43:56.054Z,20.81
2022-08-10T06:46:25.701Z,20.79
2022-08-10T06:48:59.233Z,20.79
2022-08-10T06:51:30.818Z,21.51
2022-08-10T06:54:02.966Z,23.89
2022-08-10T06:56:36.806Z,25.39
2022-08-10T06:59:22.020Z,24.95
2022-08-10T07:01:57.563Z,24.31
2022-08-10T07:04:33.907Z,23.91
2022-08-10T07:07:06.632Z,23.68
2022-08-10T07:09:40.188Z,23.66
2022-08-10T07:12:09.679Z,23.89
2022-08-10T07:14:40.725Z,24.23
2022-08-10T07:17:15.564Z,24.39
2022-08-10T07:19:52.423Z,24.56
2022-08-10T07:23:27.212Z,24.80
2022-08-10T07:25:15.249Z,24.90
2022-08-10T07:27:58.588Z,25.03
2022-08-10T07:30:32.227Z,25.54
2022-08-10T07:33:01.678Z,26.14
2022-08-10T07:35:41.492Z,26.80
2022-08-10T07:38:22.874Z,27.37
2022-08-10T07:40:53.211Z,27.75
2022-08-10T07:43:24.957Z,28.02
2022-08-10T07:45:53.076Z,28.30
2022-08-10T07:48:27.842Z,28.62
2022-08-10T07:50:59.537Z,28.78
2022-08-10T07:53:32.694Z,28.66
2022-08-10T07:56:13.220Z,28.26
2022-08-10T07:58:57.711Z,27.82
2022-08-10T08:01:31.908Z,27.47
2022-08-10T08:04:11.378Z,27.18
2022-08-10T08:06:42.522Z,26.88
2022-08-10T08:09:11.276Z,26.64
2022-08-10T08:11:42.587Z,26.41
2022-08-10T08:14:13.101Z,26.20
2022-08-10T08:16:44.599Z,26.01
2022-08-10T08:19:37.596Z,25.86
2022-08-10T08:24:07.809Z,25.70
2022-08-10T08:24:52.615Z,25.55
2022-08-10T08:27:21.732Z,25.43
2022-08-10T08:29:51.355Z,25.35
2022-08-10T08:32:23.051Z,25.24
2022-08-10T08:35:02.525Z,25.15
2022-08-10T08:38:30.351Z,25.07
2022-08-10T08:40:32.893Z,25.01
2022-08-10T08:43:12.329Z,24.95
2022-08-10T08:45:48.215Z,24.89
2022-08-10T08:50:05.278Z,24.87
2022-08-10T08:52:24.970Z,24.86
2022-08-10T08:56:03.922Z,24.85
2022-08-10T08:58:17.742Z,24.83
2022-08-10T09:01:23.225Z,24.81
2022-08-10T09:04:21.559Z,24.78
2022-08-10T09:08:01.188Z,24.77
2022-08-10T09:10:58.478Z,24.78
2022-08-10T09:13:41.375Z,24.80
2022-08-10T09:16:43.193Z,24.78
2022-08-10T09:19:35.434Z,24.70
2022-08-10T09:22:19.468Z,24.65
2022-08-10T09:25:02.850Z,24.66
2022-08-10T09:27:43.524Z,24.70
2022-08-10T09:30:18.520Z,24.74
2022-08-10T09:36:24.974Z,24.80
2022-08-10T09:36:29.580Z,24.89
2022-08-10T09:39:01.189Z,24.97
2022-08-10T09:41:47.837Z,25.02
2022-08-10T09:44:57.209Z,24.99
2022-08-10T09:48:01.573Z,24.91
2022-08-10T09:51:09.328Z,24.87
2022-08-10T09:53:33.158Z,24.91
2022-08-10T09:56:28.530Z,24.96
2022-08-10T09:59:26.715Z,25.02
2022-08-10T10:02:16.342Z,25.11
2022-08-10T10:04:56.162Z,25.18
2022-08-10T10:07:27.041Z,25.24
2022-08-10T10:10:17.153Z,25.26
2022-08-10T10:13:06.174Z,25.26
2022-08-10T10:15:40.713Z,25.26
2022-08-10T10:18:44.273Z,25.29
2022-08-10T10:21:54.258Z,25.37
2022-08-10T10:24:25.089Z,25.45
2022-08-10T10:27:25.616Z,25.52
2022-08-10T10:30:03.735Z,25.63
2022-08-10T10:33:13.074Z,25.69
2022-08-10T10:35:52.383Z,25.76
2022-08-10T10:38:26.879Z,25.81
2022-08-10T10:41:16.901Z,25.88
2022-08-10T10:43:44.565Z,25.92
2022-08-10T10:46:15.237Z,25.94
2022-08-10T10:49:03.822Z,25.94
2022-08-10T10:51:45.107Z,25.94
2022-08-10T10:54:40.614Z,25.91
2022-08-10T10:57:58.857Z,25.87
2022-08-10T11:00:22.116Z,25.79
2022-08-10T11:03:30.238Z,25.70
2022-08-10T11:06:09.598Z,25.61
2022-08-10T11:08:43.846Z,25.59
2022-08-10T11:12:00.373Z,25.59
2022-08-10T11:14:33.357Z,25.60
2022-08-10T11:17:31.113Z,25.64
2022-08-10T11:20:04.801Z,25.72
2022-08-10T11:22:51.341Z,25.77
2022-08-10T11:25:22.890Z,25.78
2022-08-10T11:28:21.306Z,25.82
2022-08-10T11:30:55.052Z,25.87
2022-08-10T11:34:04.019Z,25.86
2022-08-10T11:36:37.031Z,25.81
2022-08-10T11:39:35.094Z,25.75
2022-08-10T11:42:26.614Z,25.67
2022-08-10T11:45:10.301Z,25.60
2022-08-10T11:47:46.525Z,25.54
2022-08-10T11:50:25.413Z,25.48
2022-08-10T11:53:22.054Z,25.42
2022-08-10T11:55:56.236Z,25.35
2022-08-10T11:58:47.506Z,25.29
2022-08-10T12:01:20.795Z,25.23
2022-08-10T12:03:50.104Z,25.21
2022-08-10T12:06:33.994Z,25.24
2022-08-10T12:10:10.084Z,25.31
2022-08-10T12:12:01.167Z,25.37
2022-08-10T12:14:34.727Z,25.46
2022-08-10T12:17:08.228Z,25.58
2022-08-10T12:20:04.040Z,25.70
2022-08-10T12:22:38.796Z,25.86
2022-08-10T12:25:11.872Z,25.92
2022-08-10T12:28:07.445Z,25.92
2022-08-10T12:30:40.747Z,25.89
2022-08-10T12:33:23.120Z,25.84
2022-08-10T12:36:18.559Z,25.79
2022-08-10T12:39:06.973Z,25.74
2022-08-10T12:41:43.669Z,25.69
2022-08-10T12:44:18.346Z,25.63
2022-08-10T12:47:27.254Z,25.57
2022-08-10T12:50:30.340Z,25.55
2022-08-10T12:53:18.811Z,25.58
2022-08-10T12:55:49.863Z,25.61
2022-08-10T12:59:00.248Z,25.65
2022-08-10T13:01:17.245Z,25.72
2022-08-10T13:04:22.711Z,25.80
2022-08-10T13:06:49.965Z,25.88
2022-08-10T13:09:25.175Z,25.92
2022-08-10T13:12:36.432Z,25.94
2022-08-10T13:15:45.023Z,25.94
2022-08-10T13:18:17.870Z,25.92
2022-08-10T13:20:52.784Z,25.87
2022-08-10T13:23:30.021Z,25.85
2022-08-10T13:26:00.924Z,25.85
2022-08-10T13:28:45.581Z,25.86
2022-08-10T13:32:03.224Z,25.85
2022-08-10T13:34:42.371Z,25.85
2022-08-10T13:37:13.682Z,25.84
2022-08-10T13:39:59.441Z,25.85
2022-08-10T13:42:33.900Z,25.83
2022-08-10T13:45:15.512Z,25.83
2022-08-10T13:47:48.712Z,25.81
2022-08-10T13:50:33.691Z,25.78
2022-08-10T13:53:15.119Z,25.76
2022-08-10T13:55:55.194Z,25.76
2022-08-10T13:58:31.796Z,25.78
2022-08-10T14:01:01.771Z,25.81
2022-08-10T14:03:36.251Z,25.84
2022-08-10T14:06:06.947Z,25.88
2022-08-10T14:08:38.023Z,25.92
2022-08-10T14:11:12.369Z,25.97
2022-08-10T14:13:45.549Z,26.01
2022-08-10T14:16:13.765Z,26.06
2022-08-10T14:18:45.094Z,26.09
2022-08-10T14:21:14.851Z,26.12
2022-08-10T14:23:52.946Z,26.17
2022-08-10T14:26:29.128Z,26.22
2022-08-10T14:29:10.795Z,26.29
2022-08-10T14:32:01.499Z,26.33
2022-08-10T14:36:15.458Z,26.34
2022-08-10T14:37:37.617Z,26.32
2022-08-10T14:40:15.833Z,26.28
2022-08-10T14:42:51.442Z,26.24
2022-08-10T14:45:26.496Z,26.20
2022-08-10T14:48:01.204Z,26.13
2022-08-10T14:50:33.501Z,26.07
2022-08-10T14:53:20.208Z,26.02
2022-08-10T14:56:02.317Z,25.98
2022-08-10T14:58:35.638Z,25.96
2022-08-10T15:01:08.218Z,25.96
2022-08-10T15:03:59.202Z,25.96
2022-08-10T15:06:32.186Z,25.96
2022-08-10T15:09:18.807Z,25.95
2022-08-10T15:12:15.402Z,25.95
2022-08-10T15:14:45.069Z,25.95
2022-08-10T15:17:35.181Z,25.97
2022-08-10T15:20:24.956Z,26.00
2022-08-10T15:23:03.924Z,26.02
2022-08-10T15:25:36.767Z,26.06
2022-08-10T15:28:08.272Z,26.12
2022-08-10T15:30:43.857Z,26.18
2022-08-10T15:33:59.498Z,26.24
2022-08-10T15:37:02.348Z,26.31
2022-08-10T15:40:21.328Z,26.35
2022-08-10T15:42:55.266Z,26.35
2022-08-10T15:45:26.570Z,26.33
2022-08-10T15:48:03.181Z,26.32
2022-08-10T15:50:40.109Z,26.29
2022-08-10T15:53:49.196Z,26.28
2022-08-10T15:56:30.238Z,26.26
2022-08-10T15:59:24.980Z,26.25
2022-08-10T16:02:04.513Z,26.20
2022-08-10T16:04:59.610Z,26.15
2022-08-10T16:07:49.062Z,26.13
2022-08-10T16:10:28.235Z,26.12
2022-08-10T16:13:50.858Z,26.09
2022-08-10T16:16:03.036Z,26.04
2022-08-10T16:18:34.613Z,26.00
2022-08-10T16:21:06.801Z,25.96
2022-08-10T16:23:41.015Z,25.93
2022-08-10T16:26:14.810Z,25.89
2022-08-10T16:28:58.070Z,25.85
2022-08-10T16:31:29.296Z,25.82
2022-08-10T16:34:00.333Z,25.81
2022-08-10T16:36:43.061Z,25.79
2022-08-10T16:39:56.965Z,25.78
2022-08-10T16:42:16.623Z,25.75
2022-08-10T16:45:01.737Z,25.73
2022-08-10T16:47:32.262Z,25.68
2022-08-10T16:50:09.583Z,25.64
2022-08-10T16:52:39.770Z,25.59
2022-08-10T16:55:23.933Z,25.54
2022-08-10T16:58:04.995Z,25.47
2022-08-10T17:00:34.277Z,25.41
2022-08-10T17:03:22.387Z,25.35
2022-08-10T17:06:01.499Z,25.30
2022-08-10T17:08:48.078Z,25.24
2022-08-10T17:11:19.242Z,25.20
2022-08-10T17:13:47.979Z,25.17
2022-08-10T17:16:17.578Z,25.14
2022-08-10T17:18:48.332Z,25.11
2022-08-10T17:21:25.767Z,25.09
2022-08-10T17:23:58.098Z,25.05
2022-08-10T17:26:37.565Z,25.03
2022-08-10T17:29:59.098Z,25.00
2022-08-10T17:32:28.251Z,24.96
2022-08-10T17:35:01.145Z,24.93
2022-08-10T17:37:35.004Z,24.90
2022-08-10T17:40:09.136Z,24.86
2022-08-10T17:42:39.946Z,24.83
2022-08-10T17:45:45.977Z,24.80
2022-08-10T17:48:08.104Z,24.75
2022-08-10T17:50:40.842Z,24.72
2022-08-10T17:53:16.231Z,24.68
2022-08-10T17:55:48.322Z,24.64
2022-08-10T17:58:21.902Z,24.60
2022-08-10T18:01:40.293Z,24.56
2022-08-10T18:04:02.232Z,24.51
2022-08-10T18:06:31.400Z,24.45
2022-08-10T18:09:03.893Z,24.41
2022-08-10T18:11:34.945Z,24.35
2022-08-10T18:14:06.186Z,24.30
2022-08-10T18:16:35.103Z,24.25
2022-08-10T18:19:13.606Z,24.19
2022-08-10T18:21:44.357Z,24.13
2022-08-10T18:24:20.197Z,24.07
2022-08-10T18:26:51.877Z,24.01
2022-08-10T18:29:24.235Z,23.95
2022-08-10T18:32:01.852Z,23.89
2022-08-10T18:34:31.802Z,23.84
2022-08-10T18:37:00.843Z,23.77
2022-08-10T18:39:34.180Z,23.71
2022-08-10T18:42:11.796Z,23.66
2022-08-10T18:44:48.184Z,23.59
2022-08-10T18:47:20.275Z,23.54
2022-08-10T18:50:00.886Z,23.47
2022-08-10T18:52:32.165Z,23.42
2022-08-10T18:55:14.184Z,23.36
2022-08-10T18:58:18.369Z,23.29
2022-08-10T19:01:01.095Z,23.22
2022-08-10T19:03:54.178Z,23.16
2022-08-10T19:06:37.778Z,23.10
2022-08-10T19:09:47.539Z,23.03
2022-08-10T19:12:36.630Z,22.96
2022-08-10T19:15:19.723Z,22.90
2022-08-10T19:18:29.346Z,22.83
2022-08-10T19:21:15.387Z,22.76
2022-08-10T19:24:01.791Z,22.69
2022-08-10T19:26:41.624Z,22.62
2022-08-10T19:30:08.343Z,22.54
2022-08-10T19:32:31.561Z,22.46
2022-08-10T19:35:25.146Z,22.40
2022-08-10T19:38:33.164Z,22.32
2022-08-10T19:41:32.130Z,22.23
2022-08-10T19:44:27.577Z,22.16
2022-08-10T19:47:21.107Z,22.09
2022-08-10T19:49:59.733Z,22.03
2022-08-10T19:52:41.358Z,21.96
2022-08-10T19:55:15.792Z,21.89
2022-08-10T19:58:26.624Z,21.83
2022-08-10T20:01:01.837Z,21.76
2022-08-10T20:03:39.910Z,21.70
2022-08-10T20:06:18.788Z,21.64
2022-08-10T20:09:10.829Z,21.57
2022-08-10T20:11:59.086Z,21.52
2022-08-10T20:14:46.880Z,21.45
2022-08-10T20:17:51.590Z,21.38
2022-08-10T20:20:34.541Z,21.30
2022-08-10T20:23:16.322Z,21.22
2022-08-10T20:25:51.150Z,21.16
2022-08-10T20:28:32.604Z,21.08
2022-08-10T20:31:19.789Z,21.01
2022-08-10T20:34:01.517Z,20.93
2022-08-10T20:49:22.484Z,20.42
2022-08-10T20:51:57.956Z,20.36
2022-08-10T20:54:36.724Z,20.30
2022-08-10T20:57:54.856Z,20.23
2022-08-10T21:00:42.665Z,20.15
2022-08-10T21:03:31.431Z,20.07
2022-08-10T21:06:41.023Z,20.00
2022-08-10T21:09:31.509Z,19.93
2022-08-10T21:12:15.629Z,19.87
2022-08-10T21:15:07.335Z,19.81
2022-08-10T21:17:51.142Z,19.75
2022-08-10T21:20:39.741Z,19.68
2022-08-10T21:23:16.841Z,19.63
2022-08-10T21:26:13.917Z,19.57
2022-08-10T21:29:00.286Z,19.51
2022-08-10T21:31:51.713Z,19.46
2022-08-10T21:34:54.250Z,19.40
2022-08-10T21:37:57.023Z,19.33
2022-08-10T21:40:37.729Z,19.27
2022-08-10T21:43:48.700Z,19.22
2022-08-10T21:47:02.902Z,19.17
2022-08-10T21:50:16.204Z,19.11
2022-08-10T21:53:22.546Z,19.05
2022-08-10T21:56:46.241Z,18.97
2022-08-10T21:59:56.565Z,18.90
2022-08-10T22:02:50.188Z,18.83
2022-08-10T22:05:47.700Z,18.76
2022-08-10T22:08:38.568Z,18.69
2022-08-10T22:11:28.631Z,18.63
2022-08-10T22:14:16.113Z,18.57
2022-08-10T22:18:00.701Z,18.50
2022-08-10T22:20:27.112Z,18.43
2022-08-10T22:23:35.123Z,18.36
2022-08-10T22:27:00.567Z,18.30
2022-08-10T22:29:55.083Z,18.22
2022-08-10T22:33:04.288Z,18.16
2022-08-10T22:36:20.839Z,18.10
2022-08-10T22:40:11.867Z,18.04
2022-08-10T22:42:58.957Z,17.97
2022-08-10T22:45:53.737Z,17.91
2022-08-10T22:48:41.143Z,17.86
2022-08-10T22:51:16.641Z,17.80
2022-08-10T22:54:09.653Z,17.76
2022-08-10T22:56:57.982Z,17.70
2022-08-10T22:59:31.423Z,17.65
2022-08-10T23:02:10.586Z,17.60
2022-08-10T23:04:47.487Z,17.55
2022-08-10T23:07:18.624Z,17.50
2022-08-10T23:09:51.549Z,17.45
2022-08-10T23:12:35.619Z,17.40
2022-08-10T23:15:26.475Z,17.35
2022-08-10T23:18:16.521Z,17.30
2022-08-10T23:20:47.110Z,17.26
2022-08-10T23:23:23.727Z,17.76
2022-08-10T23:25:57.504Z,20.06
2022-08-10T23:28:58.078Z,21.53
2022-08-10T23:32:01.543Z,21.00
2022-08-10T23:34:06.640Z,20.29
2022-08-10T23:36:39.084Z,19.84
2022-08-10T23:39:26.038Z,19.51
2022-08-10T23:42:03.078Z,19.19
2022-08-10T23:44:35.482Z,18.92
2022-08-10T23:47:04.956Z,18.69
2022-08-10T23:49:35.791Z,18.48
2022-08-10T23:52:18.523Z,18.27
2022-08-10T23:54:50.020Z,18.06
2022-08-10T23:57:21.756Z,17.90
2022-08-10T23:59:53.036Z,17.75
